Time;durP1;ratioP1;P1;durP2;ratioP2;P2;SDS_P1;SDS_P2;PMS_P1;PMS_P2;Temp;Humidity;BMP_temperature;BMP_pressure;BME280_temperature;BME280_humidity;BME280_pressure;Samples;Min_cycle;Max_cycle;Signal;HPM_P1;HPM_P2
2021/05/12 00:00:30;;;;;;;18.67;8.43;;;;;;;14.06;64.41;100962.13;4954277;28;20442;-52
2021/05/12 00:03:00;;;;;;;14.75;7.82;;;;;;;14.05;63.91;100960.50;4938089;29;20051;-49
2021/05/12 00:05:27;;;;;;;16.70;7.75;;;;;;;14.02;63.96;100954.75;4954426;28;20106;-49
2021/05/12 00:07:55;;;;;;;17.80;7.93;;;;;;;14.00;63.91;100957.81;4954981;28;20043;-50
2021/05/12 00:10:23;;;;;;;14.27;7.97;;;;;;;14.00;64.36;100952.34;4954442;28;20039;-51
2021/05/12 00:12:52;;;;;;;13.18;7.78;;;;;;;14.03;64.65;100956.41;4954482;28;20086;-50
2021/05/12 00:15:23;;;;;;;15.25;8.07;;;;;;;14.04;64.21;100960.78;4953244;29;20074;-53
2021/05/12 00:17:52;;;;;;;17.02;8.50;;;;;;;14.03;64.06;100957.22;4954275;29;20043;-52
2021/05/12 00:20:24;;;;;;;14.32;8.52;;;;;;;14.03;64.49;100962.72;4954915;28;20418;-54
2021/05/12 00:22:56;;;;;;;15.93;8.57;;;;;;;14.05;64.12;100955.03;4954760;28;20058;-55
2021/05/12 00:25:24;;;;;;;14.77;8.10;;;;;;;14.09;64.02;100959.91;4954257;28;20062;-55
2021/05/12 00:27:52;;;;;;;14.05;7.93;;;;;;;14.08;63.93;100959.09;4954609;28;20506;-61
2021/05/12 00:30:21;;;;;;;14.02;7.60;;;;;;;14.08;64.06;100967.31;4953435;28;20062;-55
2021/05/12 00:32:49;;;;;;;15.52;7.55;;;;;;;14.06;63.89;100959.38;4954135;28;20470;-53
2021/05/12 00:35:17;;;;;;;15.68;8.07;;;;;;;14.06;63.79;100962.13;4953022;28;20054;-53
2021/05/12 00:37:45;;;;;;;15.60;8.45;;;;;;;14.04;63.63;100958.84;4953816;28;20047;-55
2021/05/12 00:40:14;;;;;;;15.15;8.23;;;;;;;14.04;63.71;100969.81;4954059;28;20490;-55
2021/05/12 00:42:42;;;;;;;16.63;8.25;;;;;;;14.03;64.13;100968.19;4953577;28;20184;-53
2021/05/12 00:45:18;;;;;;;16.48;8.52;;;;;;;14.05;64.16;100965.97;4954117;28;20047;-53
2021/05/12 00:47:48;;;;;;;17.65;8.15;;;;;;;14.07;64.00;100963.78;4953805;28;20039;-52
2021/05/12 00:50:23;;;;;;;16.08;8.20;;;;;;;14.07;63.84;100963.78;4954128;28;20043;-53
2021/05/12 00:52:50;;;;;;;17.48;7.80;;;;;;;14.04;63.88;100975.28;4968511;28;20063;-53
2021/05/12 00:55:19;;;;;;;13.35;7.80;;;;;;;14.01;63.92;100975.88;4954169;28;20528;-53
2021/05/12 00:57:48;;;;;;;15.98;8.40;;;;;;;14.00;63.67;100979.72;4953544;28;20047;-54
2021/05/12 01:00:18;;;;;;;13.18;7.68;;;;;;;13.98;63.85;100981.94;4953910;28;20035;-49
2021/05/12 01:02:47;;;;;;;15.77;8.02;;;;;;;13.98;63.58;100981.94;4953904;28;20055;-49
2021/05/12 01:05:30;;;;;;;16.17;8.40;;;;;;;13.97;63.92;100980.28;4954368;28;20047;-54
2021/05/12 01:07:57;;;;;;;15.95;8.20;;;;;;;13.98;63.54;100995.63;4960309;28;20087;-52
2021/05/12 01:10:25;;;;;;;15.73;7.85;;;;;;;13.98;63.92;100992.88;4960184;28;20039;-54
2021/05/12 01:12:53;;;;;;;15.80;8.32;;;;;;;13.98;63.84;100990.16;4959899;28;20055;-50
2021/05/12 01:15:26;;;;;;;13.30;7.93;;;;;;;13.96;64.20;100989.63;4960429;28;20047;-51
2021/05/12 01:18:16;;;;;;;15.00;7.68;;;;;;;13.96;63.90;100981.41;4960081;28;20495;-52
2021/05/12 01:20:51;;;;;;;16.83;8.23;;;;;;;13.93;64.01;100992.13;4960134;28;20049;-54
2021/05/12 01:23:21;;;;;;;16.52;8.40;;;;;;;13.90;63.70;100990.75;4960403;28;20039;-55
2021/05/12 01:25:50;;;;;;;13.40;7.97;;;;;;;13.90;63.72;100982.53;4959685;28;20454;-53
2021/05/12 01:28:18;;;;;;;15.45;7.82;;;;;;;13.91;63.80;100983.38;4960164;28;20050;-53
2021/05/12 01:31:06;;;;;;;17.50;8.55;;;;;;;13.92;64.10;100980.31;4960273;28;20040;-55
2021/05/12 01:33:35;;;;;;;13.25;8.18;;;;;;;13.92;64.24;100987.72;4960169;28;20098;-55
2021/05/12 01:36:04;;;;;;;15.02;8.30;;;;;;;13.91;64.21;100991.59;4952072;28;20534;-54
2021/05/12 01:38:32;;;;;;;12.68;7.55;;;;;;;13.91;64.43;100992.41;4955871;28;20047;-54
2021/05/12 01:41:01;;;;;;;13.88;7.78;;;;;;;13.91;64.50;100995.13;4959341;28;20043;-54
2021/05/12 01:43:30;;;;;;;16.85;9.07;;;;;;;13.89;64.48;100994.59;4959916;28;20054;-55
2021/05/12 01:45:58;;;;;;;16.67;8.80;;;;;;;13.89;64.81;100993.78;4959744;28;20113;-54
2021/05/12 01:48:27;;;;;;;16.95;9.52;;;;;;;13.87;64.76;100987.78;4960258;28;20078;-52
2021/05/12 01:50:54;;;;;;;18.23;10.05;;;;;;;13.87;65.22;100991.31;4959976;28;20082;-54
2021/05/12 01:53:23;;;;;;;17.70;9.55;;;;;;;13.88;65.03;100981.19;4960151;28;20098;-52
2021/05/12 01:55:51;;;;;;;17.83;9.85;;;;;;;13.90;65.04;100976.25;4959298;28;20106;-52
2021/05/12 01:58:19;;;;;;;15.70;9.73;;;;;;;13.88;65.42;100990.25;4960058;28;20031;-55
2021/05/12 02:00:50;;;;;;;18.02;10.82;;;;;;;13.89;65.06;100991.06;4959902;28;20099;-54
2021/05/12 02:03:18;;;;;;;16.55;9.95;;;;;;;13.87;65.13;100988.59;4959954;28;20487;-56
2021/05/12 02:05:47;;;;;;;17.02;10.52;;;;;;;13.87;65.33;100990.50;4959516;28;20418;-54
2021/05/12 02:08:17;;;;;;;18.02;9.63;;;;;;;13.84;65.69;100980.94;4959574;28;20043;-54
2021/05/12 02:10:45;;;;;;;20.70;10.48;;;;;;;13.83;65.80;100977.41;4959155;28;20514;-49
2021/05/12 02:13:14;;;;;;;18.05;10.18;;;;;;;13.84;65.46;100980.94;4959565;28;20043;-51
2021/05/12 02:15:43;;;;;;;16.70;10.55;;;;;;;13.84;65.39;100981.75;4959778;28;20055;-54
2021/05/12 02:18:11;;;;;;;20.88;10.32;;;;;;;13.84;65.61;100970.81;4956688;28;20058;-53
2021/05/12 02:20:39;;;;;;;15.90;9.48;;;;;;;13.85;65.56;100979.84;4956783;28;20043;-52
2021/05/12 02:23:10;;;;;;;16.63;9.60;;;;;;;13.83;65.15;100977.41;4956755;28;20047;-50
2021/05/12 02:25:38;;;;;;;17.92;9.75;;;;;;;13.82;65.30;100972.19;4956138;28;20055;-55
2021/05/12 02:28:07;;;;;;;20.67;10.68;;;;;;;13.83;65.28;100973.84;4956586;28;20558;-52
2021/05/12 02:30:35;;;;;;;19.30;10.38;;;;;;;13.82;65.34;100973.00;4956546;28;20035;-51
2021/05/12 02:33:04;;;;;;;16.70;10.75;;;;;;;13.81;65.17;100976.88;4956512;28;20524;-54
2021/05/12 02:35:32;;;;;;;17.45;10.10;;;;;;;13.81;65.15;100989.75;4956057;28;20406;-53
2021/05/12 02:38:00;;;;;;;17.75;9.93;;;;;;;13.79;65.55;100981.00;4956470;28;20055;-54
2021/05/12 02:40:28;;;;;;;15.43;9.45;;;;;;;13.77;65.64;100977.72;4955915;28;20047;-55
2021/05/12 02:42:57;;;;;;;17.90;9.73;;;;;;;13.78;65.33;100984.81;4956495;28;20063;-50
2021/05/12 02:45:25;;;;;;;15.35;9.93;;;;;;;13.79;65.53;100981.00;4956337;28;20111;-54
2021/05/12 02:48:00;;;;;;;16.25;9.68;;;;;;;13.79;65.47;100990.03;4955819;28;20450;-56
2021/05/12 02:50:30;;;;;;;16.73;10.18;;;;;;;13.78;65.29;100985.66;4954745;28;20458;-51
2021/05/12 02:53:00;;;;;;;17.13;9.82;;;;;;;13.76;65.40;100985.13;4955790;28;20083;-54
2021/05/12 02:55:28;;;;;;;17.23;10.00;;;;;;;13.75;65.10;100986.22;4956155;28;20043;-53
2021/05/12 02:57:56;;;;;;;16.88;9.95;;;;;;;13.74;65.43;100989.25;4955932;28;20537;-55
2021/05/12 03:00:26;;;;;;;15.75;9.65;;;;;;;13.74;65.22;100990.06;4955930;28;20055;-54
2021/05/12 03:02:54;;;;;;;17.40;10.10;;;;;;;13.73;65.02;100982.13;4955725;29;20043;-52
2021/05/12 03:05:21;;;;;;;18.00;10.23;;;;;;;13.73;65.08;100979.38;4956009;28;20561;-53
2021/05/12 03:07:49;;;;;;;18.85;9.68;;;;;;;13.73;64.73;100984.84;4955415;28;20051;-53
2021/05/12 03:10:19;;;;;;;15.45;10.35;;;;;;;13.71;64.75;100978.84;4955652;28;20051;-52
2021/05/12 03:12:47;;;;;;;20.48;10.25;;;;;;;13.68;64.85;100985.72;4955541;28;20047;-54
2021/05/12 03:15:17;;;;;;;15.20;9.25;;;;;;;13.66;64.49;100985.19;4955867;28;20051;-55
2021/05/12 03:17:50;;;;;;;16.60;9.07;;;;;;;13.63;64.37;100983.81;4955505;28;20070;-51
2021/05/12 03:20:19;;;;;;;15.70;9.85;;;;;;;13.63;64.49;100992.03;4955422;28;20047;-55
2021/05/12 03:22:47;;;;;;;20.10;9.93;;;;;;;13.63;64.31;100981.09;4953949;29;20450;-51
2021/05/12 03:25:16;;;;;;;16.80;9.35;;;;;;;13.63;64.28;100986.56;4955501;28;20035;-50
2021/05/12 03:27:44;;;;;;;15.48;9.10;;;;;;;13.60;64.45;100981.66;4955528;28;20085;-55
2021/05/12 03:30:18;;;;;;;16.50;9.63;;;;;;;13.59;64.46;100988.25;4955096;28;20148;-55
2021/05/12 03:32:48;;;;;;;15.07;8.90;;;;;;;13.57;64.81;101001.41;4955364;28;20064;-56
2021/05/12 03:35:16;;;;;;;16.48;9.65;;;;;;;13.49;64.79;101007.47;4955099;28;20039;-56
2021/05/12 03:37:44;;;;;;;15.80;8.50;;;;;;;13.49;64.68;101001.19;4954557;29;20063;-54
2021/05/12 03:40:12;;;;;;;18.02;9.90;;;;;;;13.50;64.86;101009.13;4955060;28;20498;-55
2021/05/12 03:42:40;;;;;;;18.23;9.75;;;;;;;13.52;64.69;101003.38;4955160;28;20052;-55
2021/05/12 03:45:09;;;;;;;20.27;10.27;;;;;;;13.52;64.93;101001.44;4955052;28;20079;-56
2021/05/12 03:47:36;;;;;;;16.75;9.63;;;;;;;13.54;65.41;101004.72;4955139;28;20490;-51
2021/05/12 03:50:06;;;;;;;14.90;8.60;;;;;;;13.55;64.99;100995.41;4954978;28;20504;-55
2021/05/12 03:52:35;;;;;;;17.65;9.02;;;;;;;13.57;65.15;101004.16;4954518;28;20046;-54
2021/05/12 03:55:04;;;;;;;16.55;9.52;;;;;;;13.56;65.15;101007.97;4954989;28;20047;-55
2021/05/12 03:57:32;;;;;;;17.15;9.10;;;;;;;13.52;65.27;101003.38;4954670;28;20047;-54
2021/05/12 04:00:00;;;;;;;16.90;9.13;;;;;;;13.50;65.81;101011.84;4955111;28;20047;-55
2021/05/12 04:02:27;;;;;;;17.38;8.95;;;;;;;13.49;65.85;101007.47;4955057;28;20036;-54
2021/05/12 04:04:55;;;;;;;15.95;9.02;;;;;;;13.51;65.42;101009.94;4954661;29;20087;-54
2021/05/12 04:07:22;;;;;;;13.90;8.95;;;;;;;13.50;66.04;101009.13;4954421;28;20035;-56
2021/05/12 04:09:50;;;;;;;15.18;8.98;;;;;;;13.49;65.91;101004.72;4954436;28;20047;-55
2021/05/12 04:12:18;;;;;;;16.45;9.32;;;;;;;13.50;65.69;100997.34;4954572;28;20047;-56
2021/05/12 04:14:45;;;;;;;13.68;8.55;;;;;;;13.54;66.01;100999.25;4954490;28;20101;-56
2021/05/12 04:17:13;;;;;;;17.73;9.50;;;;;;;13.56;66.08;101010.72;4954609;28;20116;-56
2021/05/12 04:19:41;;;;;;;17.73;8.98;;;;;;;13.56;65.94;101005.22;4954093;29;20043;-56
2021/05/12 04:22:08;;;;;;;14.77;9.00;;;;;;;13.56;65.71;101002.50;4954184;28;20113;-56
2021/05/12 04:24:36;;;;;;;16.73;9.07;;;;;;;13.55;65.88;101000.88;4954506;28;20106;-53
2021/05/12 04:27:04;;;;;;;18.52;9.25;;;;;;;13.53;66.50;101002.25;4954196;28;20067;-54
2021/05/12 04:29:32;;;;;;;16.92;8.95;;;;;;;13.53;66.32;101002.25;4954786;28;20086;-56
2021/05/12 04:31:59;;;;;;;16.50;9.13;;;;;;;13.53;66.10;101005.81;4954137;28;20039;-52
2021/05/12 04:34:27;;;;;;;16.65;8.82;;;;;;;13.53;66.37;101010.47;4953789;28;20055;-53
2021/05/12 04:36:55;;;;;;;14.57;9.30;;;;;;;13.55;66.11;101016.47;4953831;28;20117;-52
2021/05/12 04:39:23;;;;;;;20.50;10.00;;;;;;;13.52;66.75;101023.34;4954176;28;20490;-55
2021/05/12 04:41:51;;;;;;;19.63;9.95;;;;;;;13.50;66.75;101020.06;4953728;28;20106;-53
2021/05/12 04:44:19;;;;;;;21.30;9.57;;;;;;;13.49;66.52;101021.16;4954010;28;20045;-54
2021/05/12 04:46:49;;;;;;;16.77;10.00;;;;;;;13.47;66.50;101017.06;4954005;28;20453;-53
2021/05/12 04:49:18;;;;;;;18.80;10.13;;;;;;;13.45;66.71;101017.38;4953524;28;20047;-53
2021/05/12 04:51:45;;;;;;;14.65;9.30;;;;;;;13.44;67.25;101015.72;4953905;28;20047;-53
2021/05/12 04:54:13;;;;;;;16.67;9.90;;;;;;;13.43;67.10;101014.91;4953700;28;20071;-54
2021/05/12 04:56:42;;;;;;;15.85;9.77;;;;;;;13.43;67.21;101025.03;4954062;28;20043;-54
2021/05/12 04:59:09;;;;;;;16.35;9.93;;;;;;;13.40;66.77;101029.16;4954132;28;20055;-53
2021/05/12 05:01:37;;;;;;;17.38;10.27;;;;;;;13.37;67.60;101032.47;4952931;28;20058;-54
2021/05/12 05:04:05;;;;;;;18.70;10.25;;;;;;;13.37;67.40;101028.88;4955592;28;20126;-53
2021/05/12 05:06:34;;;;;;;17.92;10.10;;;;;;;13.37;67.10;101026.16;4956222;28;20383;-55
2021/05/12 05:09:06;;;;;;;16.08;9.30;;;;;;;13.35;67.28;101028.38;4956374;28;20055;-52
2021/05/12 05:11:34;;;;;;;16.27;9.98;;;;;;;13.38;67.41;101030.53;4955430;28;20514;-54
2021/05/12 05:14:02;;;;;;;13.82;9.68;;;;;;;13.38;67.05;101027.81;4953908;28;20067;-51
2021/05/12 05:16:30;;;;;;;20.65;10.90;;;;;;;13.36;67.41;101036.28;4954086;28;20418;-53
2021/05/12 05:18:57;;;;;;;17.15;10.32;;;;;;;13.33;67.22;101038.78;4952458;29;20113;-54
2021/05/12 05:21:26;;;;;;;17.75;10.68;;;;;;;13.30;67.22;101039.31;4952150;29;20083;-52
2021/05/12 05:23:54;;;;;;;17.40;11.18;;;;;;;13.27;67.51;101042.59;4964574;28;20039;-56
2021/05/12 05:26:22;;;;;;;18.02;11.38;;;;;;;13.24;67.28;101043.97;4953460;28;20418;-57
2021/05/12 05:28:50;;;;;;;16.23;10.35;;;;;;;13.21;67.52;101048.09;4953615;28;20082;-54
2021/05/12 05:31:18;;;;;;;16.58;10.77;;;;;;;13.19;67.46;101047.56;4954309;28;20059;-55
2021/05/12 05:34:04;;;;;;;16.70;11.35;;;;;;;13.17;67.65;101041.53;4952221;29;20054;-55
2021/05/12 05:36:50;;;;;;;;;;;;;;;13.16;68.02;101042.66;4953566;28;20122;-55
2021/05/12 05:39:36;;;;;;;15.95;10.23;;;;;;;13.15;67.46;101043.72;4953416;28;20519;-50
2021/05/12 05:42:23;;;;;;;17.02;10.60;;;;;;;13.13;68.25;101047.84;4948138;29;20081;-52
2021/05/12 05:45:09;;;;;;;18.60;10.48;;;;;;;13.15;67.56;101057.41;4951814;29;20118;-53
2021/05/12 05:47:56;;;;;;;20.55;13.32;;;;;;;13.16;67.43;101050.03;4946921;28;20067;-54
2021/05/12 05:50:42;;;;;;;17.65;10.70;;;;;;;13.12;68.04;101048.94;4934084;29;20092;-55
2021/05/12 05:53:28;;;;;;;18.45;11.40;;;;;;;13.14;67.67;101055.78;4955744;28;20553;-55
2021/05/12 05:56:14;;;;;;;20.23;10.60;;;;;;;13.16;68.06;101050.84;4956907;28;20042;-54
2021/05/12 05:59:00;;;;;;;;;;;;;;;13.18;67.91;101056.03;4613670;28;10000609;-52
2021/05/12 06:01:51;;;;;;;16.73;10.18;;;;;;;13.12;67.33;101047.03;4951384;29;19926;-56
2021/05/12 06:04:39;;;;;;;15.88;9.77;;;;;;;13.12;67.11;101047.03;4952126;29;20051;-53
2021/05/12 06:07:25;;;;;;;15.10;9.50;;;;;;;13.10;67.62;101043.75;4951964;29;20063;-55
2021/05/12 06:10:11;;;;;;;;;;;;;;;13.08;67.13;101051.41;4951991;29;20514;-54
2021/05/12 06:13:04;;;;;;;15.85;9.05;;;;;;;13.00;66.39;101052.00;4952661;28;19929;-56
2021/05/12 06:15:50;;;;;;;;;;;;;;;13.02;66.70;101057.19;4952483;29;20098;-54
2021/05/12 06:18:37;;;;;;;15.68;8.15;;;;;;;13.04;66.77;101049.53;4952118;29;19926;-56
2021/05/12 06:21:25;;;;;;;14.93;8.77;;;;;;;13.00;66.36;101049.25;4951096;29;20054;-60
2021/05/12 06:24:11;;;;;;;19.42;8.38;;;;;;;12.99;66.02;101047.63;4952169;29;20078;-61
2021/05/12 06:26:58;;;;;;;18.73;9.73;;;;;;;12.99;65.71;101045.72;4938372;29;20055;-56
2021/05/12 06:29:44;;;;;;;18.55;9.20;;;;;;;12.99;66.33;101042.16;4951789;29;20518;-55
2021/05/12 06:32:30;;;;;;;;;;;;;;;13.02;65.98;101051.72;4940996;29;20059;-57
2021/05/12 06:35:18;;;;;;;15.95;7.57;;;;;;;13.06;66.70;101053.63;4951588;29;19958;-53
2021/05/12 06:38:05;;;;;;;13.90;8.20;;;;;;;13.12;66.63;101057.16;4933424;29;20070;-56
2021/05/12 06:40:32;;;;;;;16.92;7.45;;;;;;;13.15;65.53;101054.66;4952779;29;20086;-54
2021/05/12 06:43:00;;;;;;;16.55;6.78;;;;;;;13.19;65.15;101057.69;4953863;28;20512;-54
2021/05/12 06:45:28;;;;;;;18.55;8.02;;;;;;;13.22;64.80;101046.16;4952758;28;20063;-54
2021/05/12 06:47:56;;;;;;;17.45;7.90;;;;;;;13.19;64.61;101050.28;4953950;28;20043;-53
2021/05/12 06:50:24;;;;;;;17.95;8.30;;;;;;;13.15;64.19;101049.19;4953902;28;20048;-51
2021/05/12 06:52:57;;;;;;;18.52;7.65;;;;;;;13.08;63.73;101050.59;4953706;28;20090;-52
2021/05/12 06:55:25;;;;;;;16.15;6.93;;;;;;;13.00;63.41;101065.69;4953784;28;20066;-53
2021/05/12 06:57:53;;;;;;;17.63;6.90;;;;;;;13.02;63.63;101065.41;4968678;28;20446;-54
2021/05/12 07:00:21;;;;;;;15.55;6.32;;;;;;;13.06;63.94;101064.56;4955080;28;20043;-56
2021/05/12 07:02:51;;;;;;;14.05;5.18;;;;;;;13.13;64.10;101061.53;4955600;28;20414;-52
2021/05/12 07:05:21;;;;;;;15.57;6.00;;;;;;;13.18;63.33;101051.41;4955614;28;20043;-53
2021/05/12 07:07:49;;;;;;;14.23;5.47;;;;;;;13.22;63.28;101051.63;4955341;28;20523;-52
2021/05/12 07:10:17;;;;;;;13.90;5.82;;;;;;;13.21;63.52;101056.31;4962504;28;20054;-52
2021/05/12 07:12:45;;;;;;;10.70;4.75;;;;;;;13.25;64.01;101056.53;4954970;28;20051;-52
2021/05/12 07:15:13;;;;;;;13.02;5.30;;;;;;;13.29;62.84;101052.19;4955410;28;20070;-52
2021/05/12 07:17:41;;;;;;;14.38;6.20;;;;;;;13.36;62.91;101062.84;4955593;28;20047;-52
2021/05/12 07:20:10;;;;;;;17.95;5.85;;;;;;;13.36;62.43;101060.09;4955062;28;20424;-57
2021/05/12 07:22:37;;;;;;;12.18;5.63;;;;;;;13.37;61.51;101056.25;4954988;28;20070;-53
2021/05/12 07:25:06;;;;;;;21.00;6.30;;;;;;;13.37;61.10;101064.47;4955252;28;20043;-49
2021/05/12 07:27:34;;;;;;;15.02;5.60;;;;;;;13.46;62.42;101057.31;4955277;28;20039;-54
2021/05/12 07:30:03;;;;;;;12.32;4.78;;;;;;;13.52;60.40;101055.38;4954761;28;20044;-49
2021/05/12 07:32:31;;;;;;;16.25;5.65;;;;;;;13.48;59.29;101059.78;4955207;28;20035;-55
2021/05/12 07:34:58;;;;;;;15.70;5.32;;;;;;;13.41;59.37;101060.06;4953867;28;20521;-56
2021/05/12 07:37:26;;;;;;;18.65;6.38;;;;;;;13.43;60.04;101063.34;4969457;28;20172;-55
2021/05/12 07:39:54;;;;;;;14.00;5.32;;;;;;;13.43;60.08;101057.88;4954782;28;20529;-56
2021/05/12 07:42:24;;;;;;;21.17;5.78;;;;;;;13.47;60.20;101069.06;4954171;28;20387;-55
2021/05/12 07:44:52;;;;;;;14.75;4.68;;;;;;;13.52;58.81;101066.34;4954667;28;20110;-55
2021/05/12 07:47:20;;;;;;;14.02;4.85;;;;;;;13.53;58.26;101068.78;4954712;28;20043;-55
2021/05/12 07:49:48;;;;;;;12.45;4.53;;;;;;;13.50;58.74;101074.81;4954706;28;20043;-56
2021/05/12 07:52:15;;;;;;;12.65;4.60;;;;;;;13.47;58.05;101069.91;4954540;28;20039;-53
2021/05/12 07:54:44;;;;;;;13.48;4.60;;;;;;;13.43;58.14;101066.09;4954569;28;20043;-50
2021/05/12 07:57:13;;;;;;;13.02;4.82;;;;;;;13.44;58.24;101067.72;4954266;28;20074;-48
2021/05/12 07:59:41;;;;;;;23.42;5.72;;;;;;;13.63;60.05;101079.66;4954238;28;20051;-54
2021/05/12 08:02:08;;;;;;;15.75;5.13;;;;;;;13.71;57.60;101070.06;4954538;28;20047;-49
2021/05/12 08:04:36;;;;;;;13.90;4.95;;;;;;;13.72;57.88;101065.38;4954318;28;20086;-50
2021/05/12 08:07:04;;;;;;;11.13;4.70;;;;;;;13.72;58.25;101059.91;4954600;28;20051;-52
2021/05/12 08:09:32;;;;;;;15.70;4.85;;;;;;;13.71;58.29;101061.00;4953823;28;20055;-49
2021/05/12 08:12:00;;;;;;;15.68;5.18;;;;;;;13.76;59.29;101064.53;4953516;28;20047;-50
2021/05/12 08:14:28;;;;;;;17.30;4.90;;;;;;;13.73;58.20;101061.53;4954276;28;20049;-53
2021/05/12 08:16:56;;;;;;;17.50;5.40;;;;;;;13.74;58.10;101054.97;4953870;28;20086;-55
2021/05/12 08:19:25;;;;;;;16.88;4.82;;;;;;;13.80;57.85;101062.84;4954182;28;20051;-55
2021/05/12 08:22:05;;;;;;;12.20;4.25;;;;;;;13.78;57.86;101065.09;4942936;29;20043;-56
2021/05/12 08:24:33;;;;;;;15.02;4.68;;;;;;;13.79;56.48;101060.41;4953127;29;20039;-55
2021/05/12 08:27:04;;;;;;;17.58;5.30;;;;;;;13.86;57.41;101060.91;4953756;28;20046;-55
2021/05/12 08:29:32;;;;;;;18.70;5.90;;;;;;;13.92;57.05;101065.25;4954131;28;20047;-53
2021/05/12 08:32:00;;;;;;;15.30;4.38;;;;;;;13.98;57.08;101075.06;4953815;28;20051;-53
2021/05/12 08:34:28;;;;;;;12.98;4.38;;;;;;;13.97;55.60;101078.09;4952861;29;20078;-60
2021/05/12 08:36:56;;;;;;;14.60;4.70;;;;;;;14.01;57.13;101071.75;4953637;28;20039;-52
2021/05/12 08:39:25;;;;;;;11.63;4.07;;;;;;;14.05;56.72;101075.56;4953673;28;20063;-53
2021/05/12 08:41:53;;;;;;;11.95;4.43;;;;;;;14.03;54.93;101066.81;4952733;28;20054;-54
2021/05/12 08:44:23;;;;;;;14.02;4.40;;;;;;;14.05;55.84;101064.63;4953806;28;20050;-52
2021/05/12 08:46:50;;;;;;;12.05;4.18;;;;;;;14.11;56.17;101068.13;4953028;29;20047;-53
2021/05/12 08:49:20;;;;;;;14.07;4.78;;;;;;;14.16;56.24;101075.50;4953568;29;20074;-51
2021/05/12 08:51:48;;;;;;;13.77;4.40;;;;;;;14.23;55.91;101073.25;4953607;28;20047;-52
2021/05/12 08:54:15;;;;;;;13.35;4.57;;;;;;;14.27;55.46;101066.09;4953625;28;20043;-53
2021/05/12 08:56:43;;;;;;;12.48;4.10;;;;;;;14.29;54.08;101080.34;4953470;28;20043;-54
2021/05/12 08:59:11;;;;;;;13.38;4.13;;;;;;;14.28;53.01;101057.56;4953648;28;20047;-52
2021/05/12 09:01:38;;;;;;;17.10;4.60;;;;;;;14.25;53.94;101063.63;4953511;28;20098;-54
2021/05/12 09:04:06;;;;;;;12.23;4.00;;;;;;;14.24;53.43;101061.19;4952330;29;20054;-52
2021/05/12 09:06:34;;;;;;;14.13;4.18;;;;;;;14.19;51.76;101053.00;4952489;29;20491;-55
2021/05/12 09:09:06;;;;;;;15.45;4.57;;;;;;;14.18;52.91;101054.09;4953856;28;20075;-52
2021/05/12 09:11:34;;;;;;;11.63;4.10;;;;;;;14.15;53.42;101054.69;4952409;28;20054;-49
2021/05/12 09:14:03;;;;;;;15.65;4.20;;;;;;;14.21;53.45;101056.25;4953894;28;20043;-50
2021/05/12 09:16:34;;;;;;;18.30;4.35;;;;;;;14.26;53.46;101064.44;4968535;28;20478;-54
2021/05/12 09:19:10;;;;;;;13.13;4.25;;;;;;;14.28;53.26;101062.22;4952410;29;20058;-53
2021/05/12 09:21:52;;;;;;;15.35;4.93;;;;;;;14.33;53.22;101062.19;4953274;28;20506;-55
2021/05/12 09:24:32;;;;;;;12.80;4.38;;;;;;;14.31;52.45;101061.69;4953324;28;20095;-54
2021/05/12 09:27:02;;;;;;;15.15;4.75;;;;;;;14.37;52.33;101057.78;4954746;28;20054;-55
2021/05/12 09:29:39;;;;;;;17.52;5.50;;;;;;;14.45;51.20;101051.66;4957101;28;20069;-54
2021/05/12 09:32:11;;;;;;;64.60;14.85;;;;;;;14.76;58.32;101056.06;4956172;29;20494;-55
2021/05/12 09:34:55;;;;;;;13.73;4.30;;;;;;;14.93;50.88;101047.38;4957218;28;20051;-56
2021/05/12 09:37:24;;;;;;;15.93;4.65;;;;;;;14.79;50.04;101050.00;4956016;28;20502;-55
2021/05/12 09:39:51;;;;;;;17.05;4.55;;;;;;;14.77;50.24;101049.47;4950021;29;20058;-55
2021/05/12 09:42:20;;;;;;;45.97;11.55;;;;;;;14.87;56.23;101050.19;4956635;28;20505;-54
2021/05/12 09:44:48;;;;;;;35.28;9.80;;;;;;;14.91;53.59;101048.50;4956826;28;20117;-53
2021/05/12 09:47:29;;;;;;;41.58;12.23;;;;;;;15.17;55.55;101042.69;4955825;29;20395;-53
2021/05/12 09:49:57;;;;;;;43.95;11.70;;;;;;;15.28;53.76;101046.94;4956890;28;20055;-54
2021/05/12 09:52:29;;;;;;;12.85;4.82;;;;;;;15.32;51.31;101049.91;4956304;28;20047;-56
2021/05/12 09:55:00;;;;;;;16.13;5.30;;;;;;;15.03;50.45;101047.25;4956418;28;20074;-53
2021/05/12 09:57:28;;;;;;;14.40;4.05;;;;;;;14.89;50.52;101049.91;4956711;28;20070;-56
2021/05/12 09:59:56;;;;;;;14.38;4.00;;;;;;;14.81;50.35;101048.59;4956856;28;20094;-54
2021/05/12 10:02:24;;;;;;;14.68;4.60;;;;;;;14.78;50.84;101043.69;4956704;28;20769;-54
2021/05/12 10:04:52;;;;;;;17.95;5.43;;;;;;;14.86;53.43;101056.78;4956489;28;20502;-53
2021/05/12 10:07:21;;;;;;;11.73;3.90;;;;;;;14.87;49.30;101047.44;4955795;29;20128;-56
2021/05/12 10:09:51;;;;;;;15.30;3.80;;;;;;;14.93;49.05;101047.38;4955897;28;20047;-54
2021/05/12 10:12:23;;;;;;;16.73;4.65;;;;;;;14.94;49.35;101041.63;4956360;28;20079;-55
2021/05/12 10:14:55;;;;;;;13.50;4.55;;;;;;;15.09;50.52;101037.88;4956386;28;20039;-55
2021/05/12 10:17:24;;;;;;;14.68;4.22;;;;;;;15.06;49.46;101052.19;4956852;28;20064;-54
2021/05/12 10:19:55;;;;;;;12.23;3.50;;;;;;;15.09;47.93;101046.09;4956168;28;20055;-51
2021/05/12 10:22:23;;;;;;;10.60;3.72;;;;;;;15.09;47.95;101038.69;4955999;28;20039;-51
2021/05/12 10:24:53;;;;;;;16.08;4.47;;;;;;;15.19;50.05;101036.91;4956588;28;20043;-55
2021/05/12 10:27:27;;;;;;;14.38;3.90;;;;;;;15.23;47.41;101044.28;4956535;28;20074;-53
2021/05/12 10:29:57;;;;;;;24.03;6.60;;;;;;;15.32;47.66;101042.53;4271907;28;10020697;-53
2021/05/12 10:32:27;;;;;;;15.32;4.07;;;;;;;15.26;46.74;101043.69;4954176;28;20095;-54
2021/05/12 10:35:05;;;;;;;12.93;3.95;;;;;;;15.23;47.07;101027.81;4949224;29;20557;-55
2021/05/12 10:37:46;;;;;;;11.93;3.55;;;;;;;15.27;46.35;101031.59;4953775;28;20078;-53
2021/05/12 10:40:23;;;;;;;11.73;3.75;;;;;;;15.27;46.44;101033.50;4953152;28;20414;-56
2021/05/12 10:45:41;;;;;;;13.60;3.40;;;;;;;15.27;46.84;101031.59;4954015;28;20047;-53
2021/05/12 10:48:30;;;;;;;15.63;3.85;;;;;;;15.41;52.29;101030.88;4942048;29;20051;-53
2021/05/12 10:51:03;;;;;;;12.38;3.65;;;;;;;15.46;48.24;101026.09;4953318;28;20043;-54
2021/05/12 10:53:32;;;;;;;12.18;3.67;;;;;;;15.42;45.86;101021.53;4953072;28;20051;-53
2021/05/12 10:56:02;;;;;;;14.68;3.90;;;;;;;15.38;46.35;101026.78;4952549;28;20047;-56
2021/05/12 10:58:46;;;;;;;10.63;3.70;;;;;;;15.42;45.84;101022.34;4954131;28;20060;-56
2021/05/12 11:01:14;;;;;;;12.75;3.08;;;;;;;15.53;47.32;101020.25;4953740;28;20043;-55
2021/05/12 11:03:52;;;;;;;14.57;3.40;;;;;;;15.57;45.81;101015.81;4953750;28;20047;-53
2021/05/12 11:06:20;;;;;;;12.55;3.90;;;;;;;15.52;45.20;101018.63;4952856;28;20039;-57
2021/05/12 11:09:09;;;;;;;13.10;3.67;;;;;;;15.45;45.70;101012.69;4953703;28;20054;-55
2021/05/12 11:11:45;;;;;;;14.52;3.78;;;;;;;15.44;46.20;101016.53;4953756;28;20506;-54
2021/05/12 11:14:20;;;;;;;10.35;3.13;;;;;;;15.42;45.83;101019.59;4955590;28;20397;-55
2021/05/12 11:17:11;;;;;;;16.88;6.03;;;;;;;15.41;45.91;101014.38;4955655;28;20118;-50
2021/05/12 11:19:50;;;;;;;10.00;3.08;;;;;;;15.50;47.20;101016.19;4954016;28;20134;-53
2021/05/12 11:22:38;;;;;;;12.43;3.83;;;;;;;15.57;46.48;101009.50;4954637;28;20087;-53
2021/05/12 11:33:38;;;;;;;9.07;2.78;;;;;;;15.55;46.12;101002.38;4955180;28;20102;-51
2021/05/12 11:36:13;;;;;;;11.10;3.10;;;;;;;15.53;45.66;101014.75;4954962;28;20113;-54
2021/05/12 11:38:42;;;;;;;9.48;3.05;;;;;;;15.44;45.80;101016.53;4954695;28;20490;-53
2021/05/12 11:41:20;;;;;;;13.07;3.17;;;;;;;15.39;46.50;101011.94;4954337;28;20048;-51
2021/05/12 11:44:03;;;;;;;10.98;3.33;;;;;;;15.38;46.94;101017.72;4953322;29;20047;-55
2021/05/12 11:46:48;;;;;;;14.05;3.72;;;;;;;15.37;46.61;101011.44;4935883;29;20043;-54